Time;durP1;ratioP1;P1;durP2;ratioP2;P2;SDS_P1;SDS_P2;PMS_P1;PMS_P2;Temp;Humidity;BMP_temperature;BMP_pressure;BME280_temperature;BME280_humidity;BME280_pressure;Samples;Min_cycle;Max_cycle;Signal;HPM_P1;HPM_P2
2023/06/05 00:01:04;;;;;;;6.28;3.78;;;14.70;99.90;;;;;;4900167;29;20020;-73
2023/06/05 00:03:30;;;;;;;8.13;4.38;;;14.70;99.90;;;;;;4896025;29;20040;-74
2023/06/05 00:05:56;;;;;;;6.20;4.40;;;14.70;99.90;;;;;;4897979;29;20024;-74
2023/06/05 00:08:22;;;;;;;7.10;4.07;;;14.60;99.90;;;;;;4895556;29;20052;-74
2023/06/05 00:10:48;;;;;;;7.72;3.88;;;14.70;99.90;;;;;;4903156;29;20020;-75
2023/06/05 00:13:13;;;;;;;7.13;4.22;;;14.60;99.90;;;;;;4896377;29;20043;-74
2023/06/05 00:15:39;;;;;;;9.38;4.80;;;14.60;99.90;;;;;;4895903;29;20051;-74
2023/06/05 00:18:05;;;;;;;8.82;4.63;;;14.50;99.90;;;;;;4895963;29;20036;-74
2023/06/05 00:20:31;;;;;;;9.07;4.40;;;14.50;99.90;;;;;;4895904;29;20532;-75
2023/06/05 00:22:57;;;;;;;9.00;4.20;;;14.60;99.90;;;;;;4900049;29;20033;-74
2023/06/05 00:25:23;;;;;;;9.73;4.40;;;14.50;99.90;;;;;;4901658;29;20508;-74
2023/06/05 00:27:49;;;;;;;7.95;4.88;;;14.50;99.90;;;;;;4882947;29;20068;-74
2023/06/05 00:30:15;;;;;;;8.20;4.82;;;14.50;99.90;;;;;;4895807;29;20075;-74
2023/06/05 00:32:41;;;;;;;8.55;4.22;;;14.50;99.90;;;;;;4900251;29;20089;-74
2023/06/05 00:35:08;;;;;;;9.02;4.55;;;14.40;99.90;;;;;;4885393;29;20036;-73
2023/06/05 00:37:34;;;;;;;10.93;5.35;;;14.30;99.90;;;;;;4895991;29;20088;-74
2023/06/05 00:40:00;;;;;;;6.75;4.80;;;14.20;99.90;;;;;;4899714;29;20035;-74
2023/06/05 00:42:26;;;;;;;10.98;5.75;;;14.10;99.90;;;;;;4895889;29;20060;-74
2023/06/05 00:44:52;;;;;;;8.95;4.72;;;14.10;99.90;;;;;;4899722;29;20052;-74
2023/06/05 00:47:19;;;;;;;7.80;4.03;;;14.10;99.90;;;;;;4878480;29;20024;-75
2023/06/05 00:49:45;;;;;;;8.18;4.85;;;14.00;99.90;;;;;;4878263;29;20045;-73
2023/06/05 00:52:12;;;;;;;8.90;4.35;;;14.10;99.90;;;;;;4899630;29;20393;-74
2023/06/05 00:54:38;;;;;;;7.53;4.78;;;14.20;99.90;;;;;;4882290;29;20548;-73
2023/06/05 00:57:07;;;;;;;9.60;4.38;;;14.10;99.90;;;;;;4878701;29;20113;-73
2023/06/05 00:59:34;;;;;;;9.95;4.22;;;14.20;99.90;;;;;;4899705;29;20500;-73
2023/06/05 01:02:02;;;;;;;9.73;4.60;;;14.20;99.90;;;;;;4895511;29;20107;-73
2023/06/05 01:04:28;;;;;;;8.85;4.78;;;14.20;99.90;;;;;;4878798;29;20503;-74
2023/06/05 01:07:00;;;;;;;7.13;4.40;;;14.10;99.90;;;;;;4895523;29;20036;-74
2023/06/05 01:09:27;;;;;;;8.57;4.43;;;14.00;99.90;;;;;;4895041;29;20413;-73
2023/06/05 01:12:05;;;;;;;8.93;4.75;;;14.00;99.90;;;;;;4895511;29;20028;-74
2023/06/05 01:14:35;;;;;;;5.85;4.53;;;14.00;99.90;;;;;;4893600;29;20470;-73
2023/06/05 01:17:02;;;;;;;9.35;4.90;;;13.90;99.90;;;;;;4899566;29;20119;-73
2023/06/05 01:19:30;;;;;;;10.52;4.53;;;13.90;99.90;;;;;;4899037;29;20036;-73
2023/06/05 01:22:00;;;;;;;11.63;4.57;;;13.80;99.90;;;;;;4882000;29;20477;-74
2023/06/05 01:24:27;;;;;;;7.88;4.82;;;13.90;99.90;;;;;;4903859;29;20028;-74
2023/06/05 01:27:03;;;;;;;10.25;5.18;;;13.80;99.90;;;;;;4882073;29;20059;-74
2023/06/05 01:29:34;;;;;;;9.93;5.35;;;13.80;99.90;;;;;;4899159;29;20021;-73
2023/06/05 01:32:06;;;;;;;10.63;5.15;;;13.80;99.90;;;;;;4882102;29;20040;-72
2023/06/05 01:34:33;;;;;;;8.18;4.70;;;13.80;99.90;;;;;;4878792;29;20048;-74
2023/06/05 01:37:01;;;;;;;10.95;4.97;;;13.70;99.90;;;;;;4897350;29;20032;-73
2023/06/05 01:39:27;;;;;;;10.30;5.78;;;13.70;99.90;;;;;;4898572;29;20043;-73
2023/06/05 01:41:56;;;;;;;8.60;5.35;;;13.70;99.90;;;;;;4885661;29;20024;-73
2023/06/05 01:44:24;;;;;;;8.27;5.40;;;13.80;99.90;;;;;;4898941;29;20087;-75
2023/06/05 01:46:50;;;;;;;9.23;5.57;;;13.80;99.90;;;;;;4898754;29;20115;-75
2023/06/05 01:49:16;;;;;;;9.23;5.63;;;13.80;99.90;;;;;;4898313;29;20465;-73
2023/06/05 01:51:42;;;;;;;8.90;5.38;;;13.90;99.90;;;;;;4898564;29;20041;-75
2023/06/05 01:54:08;;;;;;;8.10;5.15;;;13.80;99.90;;;;;;4909315;29;20035;-74
2023/06/05 01:56:36;;;;;;;10.10;5.28;;;13.80;99.90;;;;;;4903108;29;20132;-73
2023/06/05 01:59:06;;;;;;;10.07;4.93;;;13.80;99.90;;;;;;4886535;29;20020;-74
2023/06/05 02:01:32;;;;;;;8.65;5.22;;;13.70;99.90;;;;;;4901277;29;20104;-73
2023/06/05 02:03:58;;;;;;;10.18;5.70;;;13.80;99.90;;;;;;4901083;29;20036;-73
2023/06/05 02:06:24;;;;;;;9.73;6.07;;;13.80;99.90;;;;;;4889183;29;20079;-75
2023/06/05 02:08:50;;;;;;;11.20;5.55;;;13.80;99.90;;;;;;4900705;29;20135;-74
2023/06/05 02:11:17;;;;;;;10.27;5.80;;;13.80;99.90;;;;;;4901364;29;20028;-73
2023/06/05 02:13:43;;;;;;;8.95;4.68;;;13.90;99.90;;;;;;4901637;29;20492;-73
2023/06/05 02:16:11;;;;;;;8.48;5.20;;;13.80;99.90;;;;;;4901547;29;20436;-74
2023/06/05 02:18:39;;;;;;;8.23;5.13;;;13.70;99.90;;;;;;4917969;29;20024;-74
2023/06/05 02:21:05;;;;;;;9.32;5.85;;;13.70;99.90;;;;;;4918574;29;20044;-73
2023/06/05 02:23:31;;;;;;;10.20;5.70;;;13.70;99.90;;;;;;4901220;29;20087;-74
2023/06/05 02:25:59;;;;;;;9.57;5.75;;;13.70;99.90;;;;;;4911373;29;20401;-73
2023/06/05 02:28:26;;;;;;;8.23;5.22;;;13.70;99.90;;;;;;4918051;29;20039;-74
2023/06/05 02:30:54;;;;;;;9.25;4.90;;;13.70;99.90;;;;;;4918308;29;20040;-74
2023/06/05 02:33:21;;;;;;;11.10;6.03;;;13.80;99.90;;;;;;4917618;29;20031;-74
2023/06/05 02:35:47;;;;;;;18.17;6.63;;;13.70;99.90;;;;;;4919139;29;20042;-73
2023/06/05 02:38:12;;;;;;;9.88;6.03;;;13.60;99.90;;;;;;4900666;29;20054;-74
2023/06/05 02:40:39;;;;;;;8.73;5.72;;;13.60;99.90;;;;;;4904144;29;20500;-73
2023/06/05 02:43:05;;;;;;;11.40;5.35;;;13.60;99.90;;;;;;4918358;29;20492;-73
2023/06/05 02:45:34;;;;;;;10.52;5.93;;;13.70;99.90;;;;;;4925924;29;20038;-74
2023/06/05 02:48:00;;;;;;;9.57;6.05;;;13.60;99.90;;;;;;4905543;29;20040;-74
2023/06/05 02:50:26;;;;;;;11.90;6.28;;;13.70;99.90;;;;;;4901671;29;20384;-73
2023/06/05 02:52:55;;;;;;;11.85;6.38;;;13.70;99.90;;;;;;4905147;29;20039;-73
2023/06/05 02:55:29;;;;;;;11.07;6.07;;;13.70;99.90;;;;;;4907969;29;20054;-74
2023/06/05 02:57:57;;;;;;;10.30;6.20;;;13.80;99.90;;;;;;4904958;29;20032;-73
2023/06/05 03:00:31;;;;;;;10.27;5.90;;;13.80;99.90;;;;;;4900806;29;20110;-74
2023/06/05 03:02:57;;;;;;;10.43;6.07;;;14.00;99.90;;;;;;4908676;29;20080;-74
2023/06/05 03:05:29;;;;;;;13.63;5.50;;;13.90;99.90;;;;;;4907003;29;20028;-74
2023/06/05 03:08:01;;;;;;;11.93;6.25;;;13.90;99.90;;;;;;4904934;29;20315;-73
2023/06/05 03:10:27;;;;;;;9.77;6.35;;;13.90;99.90;;;;;;4906000;29;20024;-74
2023/06/05 03:12:54;;;;;;;9.80;5.75;;;13.90;99.90;;;;;;4907031;29;20387;-74
2023/06/05 03:15:21;;;;;;;13.93;6.15;;;14.00;99.90;;;;;;4904956;29;20127;-75
2023/06/05 03:17:50;;;;;;;12.18;6.45;;;14.00;99.90;;;;;;4900281;29;20038;-73
2023/06/05 03:20:19;;;;;;;10.65;6.20;;;14.00;99.90;;;;;;4894167;29;20028;-74
2023/06/05 03:22:45;;;;;;;8.57;5.60;;;14.10;99.90;;;;;;4917282;29;20024;-73
2023/06/05 03:25:11;;;;;;;8.07;5.55;;;14.10;99.90;;;;;;4905763;29;20118;-74
2023/06/05 03:27:39;;;;;;;12.25;5.82;;;14.10;99.90;;;;;;4900389;29;20024;-75
2023/06/05 03:30:08;;;;;;;11.13;5.70;;;14.30;99.90;;;;;;4899907;29;20032;-74
2023/06/05 03:32:39;;;;;;;7.78;5.18;;;14.30;99.90;;;;;;4916389;29;20036;-73
2023/06/05 03:35:07;;;;;;;10.73;5.35;;;14.20;99.90;;;;;;4900241;29;20042;-74
2023/06/05 03:37:34;;;;;;;11.65;5.30;;;14.40;99.90;;;;;;4899315;29;20030;-75
2023/06/05 03:39:59;;;;;;;10.48;5.13;;;14.50;99.90;;;;;;4917069;29;20036;-74
2023/06/05 03:42:26;;;;;;;10.93;5.63;;;14.90;99.90;;;;;;4916963;29;20024;-75
2023/06/05 03:44:52;;;;;;;9.27;4.93;;;15.50;99.90;;;;;;4900939;29;20515;-75
2023/06/05 03:47:20;;;;;;;10.77;5.60;;;16.40;99.90;;;;;;4906986;29;20135;-75
2023/06/05 03:49:47;;;;;;;7.90;4.53;;;16.80;99.90;;;;;;4904300;29;20091;-74
2023/06/05 03:52:14;;;;;;;7.63;4.30;;;17.70;99.90;;;;;;4899550;29;20515;-74
2023/06/05 03:54:41;;;;;;;8.75;3.97;;;18.40;99.90;;;;;;4900355;29;20179;-74
2023/06/05 03:57:12;;;;;;;9.18;5.15;;;18.60;99.90;;;;;;4901560;29;20028;-74
2023/06/05 03:59:39;;;;;;;7.50;4.28;;;18.60;99.90;;;;;;4899756;29;20036;-74
2023/06/05 04:02:06;;;;;;;10.80;5.47;;;18.40;99.90;;;;;;4906795;29;20039;-74
2023/06/05 04:04:34;;;;;;;11.70;4.82;;;18.50;99.90;;;;;;4916570;29;20036;-74
2023/06/05 04:07:01;;;;;;;9.25;4.65;;;18.10;99.90;;;;;;4886906;29;20358;-74
2023/06/05 04:09:27;;;;;;;10.38;4.88;;;17.90;99.90;;;;;;4916093;29;20040;-73
2023/06/05 04:11:54;;;;;;;9.52;4.65;;;17.70;99.90;;;;;;4916140;29;20500;-75
2023/06/05 04:14:21;;;;;;;7.82;4.93;;;17.70;99.90;;;;;;4899163;29;20040;-74
2023/06/05 04:16:47;;;;;;;10.38;5.32;;;17.50;99.90;;;;;;4894459;29;20025;-74
2023/06/05 04:19:20;;;;;;;10.70;5.30;;;17.20;99.90;;;;;;4888582;29;20441;-74
2023/06/05 04:21:49;;;;;;;8.43;4.93;;;17.10;99.90;;;;;;4897572;29;20451;-74
2023/06/05 04:24:15;;;;;;;7.60;4.80;;;16.60;99.90;;;;;;4900568;29;20047;-74
2023/06/05 04:26:41;;;;;;;9.70;5.22;;;16.60;99.90;;;;;;4900674;29;20029;-73
2023/06/05 04:29:15;;;;;;;8.93;5.25;;;17.20;99.90;;;;;;4916407;29;20032;-74
2023/06/05 04:31:46;;;;;;;10.32;5.57;;;17.30;99.90;;;;;;4899024;29;20480;-74
2023/06/05 04:34:12;;;;;;;9.50;4.63;;;17.30;99.90;;;;;;4898774;29;20143;-75
2023/06/05 04:36:38;;;;;;;10.02;5.43;;;18.00;99.90;;;;;;4907298;29;20028;-75
2023/06/05 04:39:06;;;;;;;13.27;5.80;;;17.70;99.90;;;;;;4915761;29;20115;-75
2023/06/05 04:41:32;;;;;;;6.57;4.57;;;18.20;99.90;;;;;;4924010;29;20026;-75
2023/06/05 04:44:00;;;;;;;9.02;5.95;;;19.00;99.90;;;;;;4901479;29;20080;-75
2023/06/05 04:46:27;;;;;;;10.98;6.00;;;18.90;99.90;;;;;;4925482;29;20028;-76
2023/06/05 04:48:55;;;;;;;10.15;5.63;;;18.50;99.90;;;;;;4918020;29;20539;-76
2023/06/05 04:51:22;;;;;;;8.55;5.68;;;19.00;99.90;;;;;;4915683;29;20050;-76
2023/06/05 04:53:50;;;;;;;9.57;5.65;;;18.30;99.90;;;;;;4898598;29;20452;-75
2023/06/05 04:56:17;;;;;;;10.73;5.70;;;18.20;99.90;;;;;;4885097;29;20052;-76
2023/06/05 04:58:42;;;;;;;14.05;6.45;;;18.10;99.90;;;;;;4902146;29;20554;-75
2023/06/05 05:01:11;;;;;;;10.73;5.47;;;18.10;99.90;;;;;;4883604;29;20124;-78
2023/06/05 05:03:39;;;;;;;10.30;5.00;;;17.90;99.90;;;;;;4915769;29;20465;-77
2023/06/05 05:06:05;;;;;;;14.77;6.50;;;18.20;99.90;;;;;;4899186;29;20039;-75
2023/06/05 05:08:31;;;;;;;9.63;5.40;;;18.20;99.90;;;;;;4912448;29;20046;-77
2023/06/05 05:10:57;;;;;;;10.82;6.40;;;18.20;99.90;;;;;;4905274;29;20188;-76
2023/06/05 05:13:24;;;;;;;13.07;6.22;;;18.30;99.90;;;;;;4898434;29;20028;-76
2023/06/05 05:15:52;;;;;;;14.65;7.32;;;17.80;99.90;;;;;;4898831;29;20032;-76
2023/06/05 05:18:19;;;;;;;13.18;5.95;;;17.70;99.90;;;;;;4879607;29;20494;-76
2023/06/05 05:20:45;;;;;;;11.30;5.63;;;17.60;99.90;;;;;;4892613;29;20040;-76
2023/06/05 05:23:12;;;;;;;11.07;5.40;;;17.80;99.90;;;;;;4898428;29;20024;-75
2023/06/05 05:25:38;;;;;;;15.27;5.70;;;17.90;99.90;;;;;;4926736;29;20027;-78
2023/06/05 05:28:04;;;;;;;10.23;6.20;;;18.00;99.90;;;;;;4883365;29;20397;-75
2023/06/05 05:30:31;;;;;;;10.88;5.90;;;18.00;99.90;;;;;;4899356;29;20032;-77
2023/06/05 05:32:57;;;;;;;15.55;6.35;;;17.80;99.90;;;;;;4908445;29;20028;-77
2023/06/05 05:35:23;;;;;;;11.57;5.50;;;17.90;99.90;;;;;;4898139;29;20131;-75
2023/06/05 05:37:49;;;;;;;11.70;6.55;;;17.90;99.90;;;;;;4907121;29;20056;-76
2023/06/05 05:40:15;;;;;;;11.85;5.82;;;18.50;99.90;;;;;;4899691;29;20040;-76
2023/06/05 05:42:41;;;;;;;11.23;5.35;;;18.90;99.90;;;;;;4916652;29;20024;-76
2023/06/05 05:45:08;;;;;;;11.15;5.43;;;19.00;99.90;;;;;;4923261;29;20035;-76
2023/06/05 05:47:33;;;;;;;16.15;5.57;;;19.50;99.90;;;;;;4909614;29;20039;-76
2023/06/05 05:49:59;;;;;;;10.85;5.82;;;19.80;99.90;;;;;;4916124;29;20032;-77
2023/06/05 05:52:25;;;;;;;9.10;5.18;;;20.10;99.90;;;;;;4885888;29;20393;-77
2023/06/05 05:54:52;;;;;;;12.95;5.03;;;20.20;99.90;;;;;;4918730;29;20096;-76
2023/06/05 05:57:18;;;;;;;9.43;6.15;;;18.90;99.90;;;;;;4916155;29;20087;-76
2023/06/05 05:59:47;;;;;;;9.80;5.63;;;19.10;99.90;;;;;;4915584;29;20036;-74
2023/06/05 06:02:12;;;;;;;8.32;4.88;;;19.20;99.90;;;;;;4929328;29;20376;-78
2023/06/05 06:04:39;;;;;;;11.20;5.90;;;19.30;99.90;;;;;;4918863;29;20039;-75
2023/06/05 06:07:05;;;;;;;11.55;5.20;;;19.30;99.90;;;;;;4919631;29;20043;-75
2023/06/05 06:09:32;;;;;;;10.45;5.78;;;19.50;99.90;;;;;;4925528;29;20042;-75
2023/06/05 06:12:02;;;;;;;9.63;4.88;;;19.30;99.90;;;;;;4919426;29;20096;-75
2023/06/05 06:14:28;;;;;;;11.15;5.70;;;19.30;99.90;;;;;;4919331;29;20444;-75
2023/06/05 06:16:55;;;;;;;8.48;5.40;;;19.80;99.90;;;;;;4919244;29;20176;-77
2023/06/05 06:19:23;;;;;;;9.15;5.38;;;19.80;99.90;;;;;;4918645;29;20064;-77
2023/06/05 06:21:51;;;;;;;9.05;5.55;;;19.70;99.90;;;;;;4923994;29;20031;-75
2023/06/05 06:24:19;;;;;;;8.32;5.20;;;19.70;99.90;;;;;;4918938;29;20043;-75
2023/06/05 06:26:46;;;;;;;9.60;5.18;;;20.10;99.90;;;;;;4918446;29;20040;-75
2023/06/05 06:29:24;;;;;;;11.95;5.13;;;20.30;99.90;;;;;;4923467;29;20043;-75
2023/06/05 06:31:50;;;;;;;9.70;5.80;;;20.70;99.90;;;;;;4918418;29;20484;-76
2023/06/05 06:34:16;;;;;;;7.82;4.90;;;21.10;99.90;;;;;;4929992;29;20062;-76
2023/06/05 06:36:43;;;;;;;9.07;4.25;;;20.50;99.90;;;;;;4921545;29;20040;-75
2023/06/05 06:39:12;;;;;;;9.65;4.95;;;20.70;99.90;;;;;;4922561;29;20377;-75
2023/06/05 06:41:38;;;;;;;6.50;3.70;;;21.00;99.90;;;;;;4925617;29;20373;-76
2023/06/05 06:44:05;;;;;;;8.93;4.60;;;21.10;99.90;;;;;;4918943;29;20510;-77
2023/06/05 06:46:31;;;;;;;15.38;5.10;;;21.30;99.90;;;;;;4901008;29;20032;-77
2023/06/05 06:48:57;;;;;;;10.15;4.43;;;21.00;99.90;;;;;;4919047;29;20111;-76
2023/06/05 06:51:24;;;;;;;10.02;5.07;;;21.10;99.90;;;;;;4917704;29;20031;-77
2023/06/05 06:53:50;;;;;;;11.23;5.43;;;21.00;99.90;;;;;;4919237;29;20040;-77
2023/06/05 06:56:17;;;;;;;12.30;5.07;;;21.00;99.90;;;;;;4917928;29;20032;-77
2023/06/05 06:58:45;;;;;;;7.55;4.30;;;21.20;99.90;;;;;;4919792;29;20028;-76
2023/06/05 07:01:11;;;;;;;7.85;4.65;;;21.30;99.90;;;;;;4928794;29;20047;-78
2023/06/05 07:03:38;;;;;;;9.73;4.78;;;20.80;99.90;;;;;;4925618;29;20368;-76
2023/06/05 07:06:04;;;;;;;10.38;4.88;;;21.00;99.90;;;;;;4921403;29;20039;-76
2023/06/05 07:08:30;;;;;;;8.25;5.18;;;21.50;99.90;;;;;;4926317;29;20044;-75
2023/06/05 07:10:55;;;;;;;6.90;4.20;;;21.80;99.90;;;;;;4902775;29;20047;-77
2023/06/05 07:13:22;;;;;;;8.38;4.88;;;22.00;99.90;;;;;;4917240;29;20051;-75
2023/06/05 07:15:49;;;;;;;12.75;5.05;;;22.40;99.90;;;;;;4917003;29;20043;-75
2023/06/05 07:18:17;;;;;;;10.88;4.82;;;23.40;99.90;;;;;;4917390;29;20051;-75
2023/06/05 07:20:42;;;;;;;7.70;4.60;;;22.90;99.90;;;;;;4917736;29;20040;-75
2023/06/05 07:23:08;;;;;;;11.32;4.30;;;23.50;99.90;;;;;;4917430;29;20035;-75
2023/06/05 07:25:34;;;;;;;7.90;4.40;;;23.10;99.90;;;;;;4917137;29;20119;-76
2023/06/05 07:28:00;;;;;;;7.30;4.13;;;22.70;99.90;;;;;;4916952;29;20028;-76
2023/06/05 07:30:28;;;;;;;7.43;4.70;;;22.90;99.90;;;;;;4917005;29;20032;-77
2023/06/05 07:32:54;;;;;;;6.60;4.40;;;22.90;99.90;;;;;;4917212;29;20024;-76
2023/06/05 07:35:20;;;;;;;5.45;3.70;;;23.20;99.90;;;;;;4916629;29;20083;-77
2023/06/05 07:37:46;;;;;;;7.97;4.35;;;23.20;99.90;;;;;;4917198;29;20016;-76
2023/06/05 07:40:12;;;;;;;13.27;5.07;;;23.00;99.90;;;;;;4919880;29;20020;-77
2023/06/05 07:42:38;;;;;;;8.65;4.55;;;22.90;99.90;;;;;;4923054;29;20020;-76
2023/06/05 07:45:05;;;;;;;9.90;4.45;;;23.20;99.90;;;;;;4916612;29;20396;-77
2023/06/05 07:47:31;;;;;;;8.43;4.50;;;23.30;99.90;;;;;;4921226;29;20020;-77
2023/06/05 07:50:03;;;;;;;7.43;4.65;;;23.50;99.90;;;;;;4924782;29;20444;-76
2023/06/05 07:52:30;;;;;;;;;;;22.10;99.90;;;;;;4916884;29;20028;-77
2023/06/05 07:54:56;;;;;;;7.40;4.80;;;22.20;99.90;;;;;;4916576;29;20418;-76
2023/06/05 07:57:23;;;;;;;7.25;4.60;;;22.30;99.90;;;;;;4918399;29;20111;-77
2023/06/05 07:59:50;;;;;;;5.82;4.15;;;22.50;99.90;;;;;;4911158;29;20027;-75
2023/06/05 08:02:18;;;;;;;9.30;4.78;;;22.60;99.90;;;;;;4916533;29;20499;-75
2023/06/05 08:04:44;;;;;;;8.52;5.40;;;23.00;99.90;;;;;;4916766;29;20075;-75
2023/06/05 08:07:10;;;;;;;11.32;4.68;;;23.40;99.90;;;;;;4916968;29;20028;-75
2023/06/05 08:09:36;;;;;;;8.20;4.82;;;23.60;99.90;;;;;;4917364;29;20496;-76
2023/06/05 08:12:05;;;;;;;9.32;5.03;;;23.00;99.90;;;;;;4923048;29;20036;-75
2023/06/05 08:14:31;;;;;;;8.70;4.75;;;23.20;99.90;;;;;;4927275;29;20436;-76
2023/06/05 08:16:57;;;;;;;6.68;4.40;;;23.60;99.90;;;;;;4917649;29;20032;-75
2023/06/05 08:19:23;;;;;;;11.50;5.13;;;23.90;99.90;;;;;;4917596;29;20032;-76
2023/06/05 08:21:59;;;;;;;7.30;4.30;;;23.60;99.90;;;;;;4905536;29;20036;-77
2023/06/05 08:24:26;;;;;;;6.68;4.28;;;23.70;99.90;;;;;;4918962;29;20050;-76
2023/06/05 08:26:52;;;;;;;6.07;4.43;;;24.10;99.90;;;;;;4917128;29;20127;-76
2023/06/05 08:29:18;;;;;;;7.45;4.20;;;24.20;99.90;;;;;;4919291;29;20111;-76
2023/06/05 08:31:44;;;;;;;6.70;4.70;;;24.30;99.90;;;;;;4916428;29;20028;-76
2023/06/05 08:34:10;;;;;;;7.25;4.53;;;24.00;99.20;;;;;;4885722;29;20048;-76
2023/06/05 08:36:36;;;;;;;7.20;4.72;;;24.30;99.90;;;;;;4899247;29;20388;-76
2023/06/05 08:39:02;;;;;;;7.88;4.55;;;24.30;99.90;;;;;;4925543;29;20192;-76
2023/06/05 08:41:31;;;;;;;8.57;4.82;;;24.50;99.90;;;;;;4916818;29;20115;-76
2023/06/05 08:43:57;;;;;;;9.90;4.80;;;24.50;99.90;;;;;;4916131;29;20031;-77
2023/06/05 08:46:28;;;;;;;6.55;4.18;;;24.70;99.90;;;;;;4924890;29;20036;-76
2023/06/05 08:48:56;;;;;;;6.82;4.35;;;24.90;99.90;;;;;;4916764;29;20681;-77
2023/06/05 08:51:22;;;;;;;7.00;4.32;;;25.20;99.90;;;;;;4916800;29;20127;-77
2023/06/05 08:54:12;;;;;;;6.78;4.30;;;25.20;99.90;;;;;;4915791;29;20451;-76
2023/06/05 08:56:42;;;;;;;9.55;4.97;;;24.90;98.20;;;;;;4915139;29;20036;-77
2023/06/05 08:59:09;;;;;;;6.15;4.10;;;25.00;99.10;;;;;;4914510;29;20478;-76
2023/06/05 09:01:37;;;;;;;5.63;3.63;;;24.50;99.50;;;;;;4920918;29;20032;-75
2023/06/05 09:04:03;;;;;;;5.63;3.67;;;24.50;98.50;;;;;;4904953;29;20024;-73
2023/06/05 09:06:28;;;;;;;7.10;4.45;;;24.50;98.30;;;;;;4915307;29;20114;-74
2023/06/05 09:08:55;;;;;;;7.15;4.22;;;24.60;99.90;;;;;;4915709;29;20051;-77
2023/06/05 09:11:26;;;;;;;4.80;3.30;;;24.60;99.10;;;;;;4915443;29;20481;-74
2023/06/05 09:13:54;;;;;;;5.68;4.03;;;24.50;99.90;;;;;;4899690;29;20429;-74
2023/06/05 09:16:21;;;;;;;6.35;3.85;;;24.90;99.70;;;;;;4899704;29;20426;-73
2023/06/05 09:18:58;;;;;;;6.38;4.10;;;24.40;98.30;;;;;;4919496;29;20425;-75
2023/06/05 09:21:30;;;;;;;7.68;4.45;;;24.70;98.10;;;;;;4915299;29;20043;-74
2023/06/05 09:24:13;;;;;;;7.63;4.15;;;25.50;99.90;;;;;;4916572;29;20044;-74
2023/06/05 09:26:48;;;;;;;6.13;3.78;;;25.50;99.90;;;;;;4898511;29;20087;-75
2023/06/05 09:29:20;;;;;;;8.13;4.07;;;25.20;97.00;;;;;;4899069;29;20050;-74
2023/06/05 09:31:46;;;;;;;5.28;3.58;;;25.50;99.90;;;;;;4924312;29;20023;-75
2023/06/05 09:34:26;;;;;;;6.03;3.65;;;25.20;96.20;;;;;;4916660;29;20445;-75
2023/06/05 09:36:54;;;;;;;4.40;3.15;;;25.60;96.40;;;;;;4915952;29;20125;-74
2023/06/05 09:39:21;;;;;;;6.03;4.20;;;25.70;96.00;;;;;;4922817;29;20075;-75
2023/06/05 09:41:51;;;;;;;4.78;3.47;;;25.50;96.40;;;;;;4919059;29;20080;-74
2023/06/05 09:44:17;;;;;;;5.85;3.47;;;24.80;96.20;;;;;;4903919;29;20495;-75
2023/06/05 09:47:08;;;;;;;4.28;3.55;;;25.10;97.30;;;;;;4925946;29;20022;-75
2023/06/05 09:49:39;;;;;;;10.90;4.10;;;25.20;97.50;;;;;;4920626;29;20044;-74
2023/06/05 09:52:07;;;;;;;7.75;4.07;;;25.40;99.90;;;;;;4921407;29;20032;-74
2023/06/05 09:54:35;;;;;;;6.65;3.75;;;;;;;;;;4929600;29;20040;-74
2023/06/05 09:57:05;;;;;;;9.15;3.42;;;26.20;99.90;;;;;;4903514;29;20025;-73
2023/06/05 09:59:33;;;;;;;5.68;3.45;;;25.80;96.30;;;;;;4919317;29;20050;-75
2023/06/05 10:02:06;;;;;;;4.65;3.47;;;25.50;95.40;;;;;;4932883;29;20079;-74
2023/06/05 10:04:41;;;;;;;6.57;3.33;;;25.40;96.40;;;;;;4925514;29;20123;-77
2023/06/05 10:07:08;;;;;;;9.40;4.10;;;25.40;98.40;;;;;;4922574;29;20032;-77
2023/06/05 10:09:35;;;;;;;6.10;3.67;;;25.60;96.90;;;;;;4918325;29;20036;-77
2023/06/05 10:12:03;;;;;;;8.20;4.07;;;25.50;97.80;;;;;;4918232;29;20032;-75
2023/06/05 10:14:29;;;;;;;7.45;4.40;;;25.10;96.70;;;;;;4918347;29;20042;-77
2023/06/05 10:16:57;;;;;;;4.30;3.40;;;25.10;97.30;;;;;;4917678;29;20036;-77
2023/06/05 10:19:24;;;;;;;5.35;3.80;;;25.10;97.80;;;;;;4901084;29;20072;-76
2023/06/05 10:21:51;;;;;;;5.20;3.72;;;25.10;98.00;;;;;;4901613;29;20445;-75
2023/06/05 10:24:33;;;;;;;7.90;4.30;;;25.40;99.90;;;;;;4918352;29;20020;-76
2023/06/05 10:27:09;;;;;;;;;;;25.50;99.10;;;;;;4901616;29;20370;-76
2023/06/05 10:30:11;;;;;;;6.72;4.25;;;25.30;97.60;;;;;;4907390;29;19915;-75
2023/06/05 10:32:57;;;;;;;5.95;3.97;;;24.90;98.50;;;;;;4917486;29;20404;-77
2023/06/05 10:35:55;;;;;;;9.05;5.03;;;24.90;98.30;;;;;;4904742;29;20037;-76
2023/06/05 10:38:24;;;;;;;9.88;3.97;;;25.40;99.90;;;;;;4915349;29;20028;-76
2023/06/05 10:40:55;;;;;;;8.07;4.18;;;25.40;98.50;;;;;;4918751;29;20491;-76
2023/06/05 10:43:45;;;;;;;7.47;4.00;;;25.40;98.40;;;;;;4918213;29;20066;-76
2023/06/05 10:46:31;;;;;;;9.10;4.78;;;25.70;97.80;;;;;;4917490;29;20477;-76
2023/06/05 10:49:17;;;;;;;6.65;4.30;;;25.90;99.90;;;;;;4916992;29;20089;-77
2023/06/05 10:51:48;;;;;;;8.48;4.53;;;26.10;98.70;;;;;;4910671;29;20346;-73
2023/06/05 10:54:16;;;;;;;3.90;3.42;;;25.90;97.00;;;;;;4917413;29;20114;-77
2023/06/05 10:56:53;;;;;;;5.43;3.95;;;26.20;96.20;;;;;;4917201;29;20036;-75
2023/06/05 10:59:20;;;;;;;6.45;4.60;;;26.20;98.70;;;;;;4907207;29;20396;-74
2023/06/05 11:02:08;;;;;;;10.02;4.70;;;26.30;99.50;;;;;;4916962;29;20476;-74
2023/06/05 11:04:46;;;;;;;9.50;4.20;;;26.10;96.90;;;;;;4917423;29;20024;-76
2023/06/05 11:07:20;;;;;;;6.10;4.25;;;25.80;95.50;;;;;;4900401;29;20465;-76
2023/06/05 11:12:35;;;;;;;13.45;4.55;;;25.70;96.40;;;;;;4899003;29;20466;-77
2023/06/05 11:15:03;;;;;;;6.38;4.63;;;25.70;97.30;;;;;;4899870;29;20099;-77
2023/06/05 11:17:30;;;;;;;4.88;3.92;;;25.80;97.70;;;;;;4896911;29;20048;-76
2023/06/05 11:19:56;;;;;;;7.57;5.20;;;25.90;98.70;;;;;;4912208;29;20494;-75
2023/06/05 11:22:22;;;;;;;5.75;4.18;;;26.10;98.20;;;;;;4899791;29;20408;-76
2023/06/05 11:25:14;;;;;;;8.27;4.22;;;26.00;96.80;;;;;;4916782;29;20039;-75
2023/06/05 11:27:46;;;;;;;7.65;4.63;;;25.90;97.10;;;;;;4916546;29;20016;-76
2023/06/05 11:30:16;;;;;;;9.27;3.70;;;25.90;98.40;;;;;;4916792;29;20074;-75
2023/06/05 11:32:43;;;;;;;9.80;3.63;;;25.80;96.90;;;;;;4916965;29;20060;-75
2023/06/05 11:35:09;;;;;;;7.20;3.83;;;25.50;96.00;;;;;;4926343;29;20100;-75
2023/06/05 11:37:36;;;;;;;6.30;3.75;;;25.70;97.00;;;;;;4917058;29;20031;-73
2023/06/05 11:40:09;;;;;;;12.57;4.43;;;25.80;98.30;;;;;;4917035;29;20443;-73
2023/06/05 11:42:36;;;;;;;5.72;3.45;;;25.70;98.00;;;;;;4916721;29;20099;-76
2023/06/05 11:45:02;;;;;;;7.85;3.65;;;25.70;97.30;;;;;;4916900;29;20024;-74
2023/06/05 11:47:29;;;;;;;5.20;3.42;;;25.40;98.50;;;;;;4916506;29;20024;-76
2023/06/05 11:50:08;;;;;;;6.72;4.10;;;25.00;97.70;;;;;;4917108;29;20052;-75
2023/06/05 11:52:35;;;;;;;7.68;4.70;;;25.40;99.90;;;;;;4916479;29;20079;-74
2023/06/05 11:55:16;;;;;;;6.25;3.95;;;25.40;99.90;;;;;;4916307;29;20191;-74
2023/06/05 11:57:43;;;;;;;6.72;3.42;;;25.70;99.90;;;;;;4916341;29;20114;-75
2023/06/05 12:00:12;;;;;;;6.40;3.95;;;25.60;99.20;;;;;;4916451;29;20047;-75
2023/06/05 12:02:39;;;;;;;5.82;3.30;;;25.90;99.90;;;;;;4916730;29;20428;-75
2023/06/05 12:05:07;;;;;;;5.28;4.18;;;26.10;98.70;;;;;;4916126;29;20028;-74
2023/06/05 12:07:36;;;;;;;7.10;4.38;;;26.20;99.90;;;;;;4916016;29;20032;-75
2023/06/05 12:10:03;;;;;;;12.68;3.88;;;26.30;99.40;;;;;;4916390;29;20119;-75
2023/06/05 12:12:29;;;;;;;11.68;4.18;;;26.40;97.20;;;;;;4883832;29;20492;-75
2023/06/05 12:14:56;;;;;;;7.10;3.40;;;26.20;98.40;;;;;;4916520;29;20211;-75
2023/06/05 12:17:24;;;;;;;5.90;3.60;;;25.60;97.80;;;;;;4916336;29;20151;-74
2023/06/05 12:19:54;;;;;;;7.40;3.88;;;26.00;98.60;;;;;;4916309;29;20535;-75
2023/06/05 12:22:20;;;;;;;4.57;3.35;;;26.10;96.70;;;;;;4916342;29;20028;-75
2023/06/05 12:24:46;;;;;;;8.35;3.83;;;26.00;96.80;;;;;;4916194;29;20032;-74
2023/06/05 12:27:12;;;;;;;4.47;2.92;;;26.30;98.30;;;;;;4899258;29;20024;-75
2023/06/05 12:29:51;;;;;;;5.20;3.80;;;26.00;96.00;;;;;;4916238;29;20032;-74
2023/06/05 12:32:22;;;;;;;5.20;3.40;;;26.10;98.20;;;;;;4916027;29;20119;-74
2023/06/05 12:34:53;;;;;;;7.07;3.75;;;26.40;96.20;;;;;;4915845;29;20369;-75
2023/06/05 12:37:31;;;;;;;4.32;3.03;;;26.10;97.40;;;;;;4916113;29;20035;-75
2023/06/05 12:40:01;;;;;;;5.63;3.42;;;26.30;96.50;;;;;;4916248;29;20043;-75
2023/06/05 12:42:28;;;;;;;6.25;4.03;;;25.70;95.40;;;;;;4915754;29;20476;-74
2023/06/05 12:44:54;;;;;;;5.72;2.90;;;26.20;96.00;;;;;;4916240;29;20110;-75
2023/06/05 12:47:20;;;;;;;4.38;2.90;;;26.40;96.10;;;;;;4915612;29;20042;-76
2023/06/05 12:49:46;;;;;;;5.80;3.22;;;26.50;95.00;;;;;;4916727;29;20217;-75
2023/06/05 12:52:12;;;;;;;4.68;3.22;;;26.60;95.20;;;;;;4915858;29;20075;-75
2023/06/05 12:54:38;;;;;;;4.70;3.22;;;26.50;95.20;;;;;;4915791;29;20039;-75